sensor_id;sensor_type;location;lat;lon;timestamp;P1;durP1;ratioP1;P2;durP2;ratioP2
76477;SDS011;65309;49.790;18.972;2023-02-15T00:06:40;14.82;;;6.45;;
76477;SDS011;65309;49.790;18.972;2023-02-15T00:12:41;15.38;;;7.45;;
76477;SDS011;65309;49.790;18.972;2023-02-15T00:18:46;13.18;;;7.85;;
76477;SDS011;65309;49.790;18.972;2023-02-15T00:24:46;10.32;;;6.15;;
76477;SDS011;65309;49.790;18.972;2023-02-15T00:30:47;9.55;;;5.15;;
76477;SDS011;65309;49.790;18.972;2023-02-15T00:36:49;11.98;;;7.45;;
76477;SDS011;65309;49.790;18.972;2023-02-15T00:43:08;9.82;;;5.60;;
76477;SDS011;65309;49.790;18.972;2023-02-15T00:49:09;9.27;;;5.85;;
76477;SDS011;65309;49.790;18.972;2023-02-15T00:55:11;11.60;;;6.10;;
76477;SDS011;65309;49.790;18.972;2023-02-15T01:01:13;14.55;;;6.75;;
76477;SDS011;65309;49.790;18.972;2023-02-15T01:07:14;12.13;;;6.93;;
76477;SDS011;65309;49.790;18.972;2023-02-15T01:27:56;11.20;;;6.28;;
76477;SDS011;65309;49.790;18.972;2023-02-15T01:33:57;9.57;;;6.05;;
76477;SDS011;65309;49.790;18.972;2023-02-15T01:39:59;12.57;;;6.55;;
76477;SDS011;65309;49.790;18.972;2023-02-15T01:46:36;15.13;;;6.82;;
76477;SDS011;65309;49.790;18.972;2023-02-15T01:52:40;9.52;;;7.00;;
76477;SDS011;65309;49.790;18.972;2023-02-15T01:58:51;12.20;;;7.72;;
76477;SDS011;65309;49.790;18.972;2023-02-15T02:05:05;17.70;;;9.18;;
76477;SDS011;65309;49.790;18.972;2023-02-15T02:11:09;12.30;;;6.80;;
76477;SDS011;65309;49.790;18.972;2023-02-15T02:17:14;8.27;;;6.72;;
76477;SDS011;65309;49.790;18.972;2023-02-15T02:39:27;4.43;;;3.95;;
76477;SDS011;65309;49.790;18.972;2023-02-15T02:45:35;9.20;;;5.88;;
76477;SDS011;65309;49.790;18.972;2023-02-15T02:51:45;9.63;;;4.85;;
76477;SDS011;65309;49.790;18.972;2023-02-15T02:57:50;7.03;;;5.32;;
76477;SDS011;65309;49.790;18.972;2023-02-15T03:11:53;7.82;;;4.38;;
76477;SDS011;65309;49.790;18.972;2023-02-15T03:17:55;6.93;;;5.45;;
76477;SDS011;65309;49.790;18.972;2023-02-15T03:24:00;7.10;;;3.92;;
76477;SDS011;65309;49.790;18.972;2023-02-15T03:37:13;7.82;;;5.30;;
76477;SDS011;65309;49.790;18.972;2023-02-15T03:43:19;13.18;;;6.00;;
76477;SDS011;65309;49.790;18.972;2023-02-15T03:49:27;7.68;;;5.50;;
76477;SDS011;65309;49.790;18.972;2023-02-15T03:55:52;8.70;;;5.25;;
76477;SDS011;65309;49.790;18.972;2023-02-15T04:02:14;6.57;;;3.40;;
76477;SDS011;65309;49.790;18.972;2023-02-15T04:08:24;5.68;;;4.18;;
76477;SDS011;65309;49.790;18.972;2023-02-15T04:14:45;6.65;;;5.15;;
76477;SDS011;65309;49.790;18.972;2023-02-15T04:21:05;6.07;;;3.67;;
76477;SDS011;65309;49.790;18.972;2023-02-15T04:27:24;8.52;;;4.85;;
76477;SDS011;65309;49.790;18.972;2023-02-15T04:33:26;6.80;;;3.63;;
76477;SDS011;65309;49.790;18.972;2023-02-15T04:39:27;9.30;;;5.20;;
76477;SDS011;65309;49.790;18.972;2023-02-15T04:45:27;7.03;;;4.28;;
76477;SDS011;65309;49.790;18.972;2023-02-15T04:51:30;5.30;;;3.83;;
76477;SDS011;65309;49.790;18.972;2023-02-15T04:57:30;5.93;;;3.40;;
76477;SDS011;65309;49.790;18.972;2023-02-15T05:03:31;3.83;;;3.20;;
76477;SDS011;65309;49.790;18.972;2023-02-15T05:09:33;3.78;;;1.85;;
76477;SDS011;65309;49.790;18.972;2023-02-15T05:15:33;4.70;;;2.05;;
76477;SDS011;65309;49.790;18.972;2023-02-15T05:21:35;4.45;;;3.20;;
76477;SDS011;65309;49.790;18.972;2023-02-15T05:27:37;4.40;;;2.90;;
76477;SDS011;65309;49.790;18.972;2023-02-15T05:33:39;4.90;;;2.90;;
76477;SDS011;65309;49.790;18.972;2023-02-15T05:43:00;6.70;;;3.45;;
76477;SDS011;65309;49.790;18.972;2023-02-15T05:49:00;4.95;;;2.60;;
76477;SDS011;65309;49.790;18.972;2023-02-15T05:55:01;3.92;;;1.33;;
76477;SDS011;65309;49.790;18.972;2023-02-15T06:01:08;1.58;;;1.27;;
76477;SDS011;65309;49.790;18.972;2023-02-15T06:07:09;5.70;;;2.08;;
76477;SDS011;65309;49.790;18.972;2023-02-15T06:13:09;3.72;;;2.33;;
76477;SDS011;65309;49.790;18.972;2023-02-15T06:19:11;6.47;;;3.30;;
76477;SDS011;65309;49.790;18.972;2023-02-15T06:25:12;4.68;;;3.08;;
76477;SDS011;65309;49.790;18.972;2023-02-15T06:31:13;2.63;;;1.67;;
76477;SDS011;65309;49.790;18.972;2023-02-15T06:37:15;5.47;;;3.05;;
76477;SDS011;65309;49.790;18.972;2023-02-15T06:43:15;7.55;;;2.42;;
76477;SDS011;65309;49.790;18.972;2023-02-15T06:49:16;5.10;;;3.33;;
76477;SDS011;65309;49.790;18.972;2023-02-15T06:55:18;5.25;;;3.85;;
76477;SDS011;65309;49.790;18.972;2023-02-15T07:01:18;6.50;;;4.55;;
76477;SDS011;65309;49.790;18.972;2023-02-15T07:07:19;4.72;;;3.35;;
76477;SDS011;65309;49.790;18.972;2023-02-15T07:12:22;11.68;;;6.45;;
76477;SDS011;65309;49.790;18.972;2023-02-15T07:18:22;7.35;;;4.68;;
76477;SDS011;65309;49.790;18.972;2023-02-15T07:23:24;11.30;;;6.45;;
76477;SDS011;65309;49.790;18.972;2023-02-15T07:29:27;11.95;;;6.05;;
76477;SDS011;65309;49.790;18.972;2023-02-15T07:35:28;9.40;;;6.07;;
76477;SDS011;65309;49.790;18.972;2023-02-15T07:41:28;11.20;;;6.90;;
76477;SDS011;65309;49.790;18.972;2023-02-15T07:47:30;8.27;;;4.90;;
76477;SDS011;65309;49.790;18.972;2023-02-15T07:53:31;8.50;;;6.47;;
76477;SDS011;65309;49.790;18.972;2023-02-15T07:59:32;10.88;;;7.35;;
76477;SDS011;65309;49.790;18.972;2023-02-15T08:05:56;17.98;;;9.05;;
76477;SDS011;65309;49.790;18.972;2023-02-15T08:11:57;15.35;;;8.13;;
76477;SDS011;65309;49.790;18.972;2023-02-15T08:17:57;12.23;;;8.55;;
76477;SDS011;65309;49.790;18.972;2023-02-15T08:24:00;13.77;;;9.13;;
76477;SDS011;65309;49.790;18.972;2023-02-15T08:30:01;20.65;;;10.45;;
76477;SDS011;65309;49.790;18.972;2023-02-15T08:36:06;15.10;;;11.02;;
76477;SDS011;65309;49.790;18.972;2023-02-15T08:42:08;19.30;;;9.10;;
76477;SDS011;65309;49.790;18.972;2023-02-15T08:48:09;11.90;;;7.70;;
76477;SDS011;65309;49.790;18.972;2023-02-15T08:54:11;17.13;;;7.38;;
76477;SDS011;65309;49.790;18.972;2023-02-15T09:00:14;17.52;;;9.57;;
76477;SDS011;65309;49.790;18.972;2023-02-15T09:06:20;16.23;;;9.77;;
76477;SDS011;65309;49.790;18.972;2023-02-15T09:12:20;26.17;;;12.48;;
76477;SDS011;65309;49.790;18.972;2023-02-15T09:17:24;17.90;;;10.27;;
76477;SDS011;65309;49.790;18.972;2023-02-15T09:22:26;18.63;;;9.63;;
76477;SDS011;65309;49.790;18.972;2023-02-15T09:27:29;15.02;;;8.02;;
76477;SDS011;65309;49.790;18.972;2023-02-15T09:32:32;18.67;;;9.15;;
76477;SDS011;65309;49.790;18.972;2023-02-15T09:37:34;18.25;;;9.00;;
76477;SDS011;65309;49.790;18.972;2023-02-15T09:42:42;13.95;;;8.93;;
76477;SDS011;65309;49.790;18.972;2023-02-15T09:48:06;13.23;;;8.52;;
76477;SDS011;65309;49.790;18.972;2023-02-15T09:53:29;18.17;;;9.80;;
76477;SDS011;65309;49.790;18.972;2023-02-15T09:58:46;10.05;;;6.22;;
76477;SDS011;65309;49.790;18.972;2023-02-15T10:04:04;16.23;;;7.55;;
76477;SDS011;65309;49.790;18.972;2023-02-15T10:20:21;20.48;;;11.63;;
76477;SDS011;65309;49.790;18.972;2023-02-15T10:25:31;20.67;;;12.45;;
76477;SDS011;65309;49.790;18.972;2023-02-15T10:30:44;20.40;;;12.25;;
76477;SDS011;65309;49.790;18.972;2023-02-15T10:35:52;22.23;;;11.15;;
76477;SDS011;65309;49.790;18.972;2023-02-15T10:46:19;19.80;;;12.18;;
76477;SDS011;65309;49.790;18.972;2023-02-15T10:56:43;23.88;;;10.55;;
76477;SDS011;65309;49.790;18.972;2023-02-15T11:01:53;23.05;;;11.48;;
76477;SDS011;65309;49.790;18.972;2023-02-15T11:07:04;32.00;;;13.45;;
76477;SDS011;65309;49.790;18.972;2023-02-15T11:12:11;25.75;;;13.98;;
76477;SDS011;65309;49.790;18.972;2023-02-15T11:17:19;29.33;;;14.88;;
76477;SDS011;65309;49.790;18.972;2023-02-15T11:22:26;23.05;;;11.63;;
76477;SDS011;65309;49.790;18.972;2023-02-15T11:32:33;34.97;;;20.05;;
76477;SDS011;65309;49.790;18.972;2023-02-15T11:37:39;29.48;;;17.33;;
76477;SDS011;65309;49.790;18.972;2023-02-15T11:42:44;44.40;;;23.05;;
76477;SDS011;65309;49.790;18.972;2023-02-15T11:47:48;35.85;;;18.17;;
76477;SDS011;65309;49.790;18.972;2023-02-15T11:52:52;33.38;;;18.25;;
76477;SDS011;65309;49.790;18.972;2023-02-15T11:57:57;35.83;;;18.52;;
76477;SDS011;65309;49.790;18.972;2023-02-15T12:03:09;31.98;;;18.85;;
76477;SDS011;65309;49.790;18.972;2023-02-15T12:08:17;37.20;;;17.65;;
76477;SDS011;65309;49.790;18.972;2023-02-15T12:13:21;34.53;;;19.27;;
76477;SDS011;65309;49.790;18.972;2023-02-15T12:18:30;35.22;;;17.33;;
76477;SDS011;65309;49.790;18.972;2023-02-15T12:23:41;39.95;;;18.77;;
76477;SDS011;65309;49.790;18.972;2023-02-15T12:28:48;34.58;;;18.58;;
76477;SDS011;65309;49.790;18.972;2023-02-15T12:33:54;26.23;;;15.48;;
76477;SDS011;65309;49.790;18.972;2023-02-15T12:39:04;37.55;;;18.60;;
76477;SDS011;65309;49.790;18.972;2023-02-15T12:44:18;36.55;;;19.42;;
76477;SDS011;65309;49.790;18.972;2023-02-15T12:49:21;31.33;;;16.75;;
76477;SDS011;65309;49.790;18.972;2023-02-15T12:54:28;34.90;;;17.75;;
76477;SDS011;65309;49.790;18.972;2023-02-15T12:59:42;41.00;;;18.90;;
76477;SDS011;65309;49.790;18.972;2023-02-15T13:04:49;39.42;;;19.33;;
76477;SDS011;65309;49.790;18.972;2023-02-15T13:09:54;39.08;;;21.13;;
76477;SDS011;65309;49.790;18.972;2023-02-15T13:14:56;41.75;;;21.17;;
76477;SDS011;65309;49.790;18.972;2023-02-15T13:20:02;42.13;;;19.98;;
76477;SDS011;65309;49.790;18.972;2023-02-15T13:25:14;39.50;;;19.00;;
76477;SDS011;65309;49.790;18.972;2023-02-15T13:30:24;33.85;;;19.48;;
76477;SDS011;65309;49.790;18.972;2023-02-15T13:35:29;38.80;;;20.38;;
76477;SDS011;65309;49.790;18.972;2023-02-15T13:40:41;37.88;;;19.23;;
76477;SDS011;65309;49.790;18.972;2023-02-15T13:45:56;34.47;;;18.02;;
76477;SDS011;65309;49.790;18.972;2023-02-15T13:51:11;37.45;;;18.58;;
76477;SDS011;65309;49.790;18.972;2023-02-15T13:56:21;35.63;;;17.88;;
76477;SDS011;65309;49.790;18.972;2023-02-15T14:01:34;36.70;;;19.30;;
76477;SDS011;65309;49.790;18.972;2023-02-15T14:06:50;42.60;;;18.27;;
76477;SDS011;65309;49.790;18.972;2023-02-15T14:12:10;36.05;;;18.80;;
76477;SDS011;65309;49.790;18.972;2023-02-15T14:17:25;32.03;;;17.52;;
76477;SDS011;65309;49.790;18.972;2023-02-15T14:22:37;36.35;;;18.02;;
76477;SDS011;65309;49.790;18.972;2023-02-15T14:27:45;34.50;;;16.83;;
76477;SDS011;65309;49.790;18.972;2023-02-15T14:32:57;33.03;;;17.85;;
76477;SDS011;65309;49.790;18.972;2023-02-15T14:38:06;40.33;;;19.48;;
76477;SDS011;65309;49.790;18.972;2023-02-15T14:43:21;35.78;;;17.05;;
76477;SDS011;65309;49.790;18.972;2023-02-15T14:48:30;35.30;;;16.95;;
76477;SDS011;65309;49.790;18.972;2023-02-15T14:53:37;32.55;;;17.23;;
76477;SDS011;65309;49.790;18.972;2023-02-15T14:58:43;31.52;;;17.05;;
76477;SDS011;65309;49.790;18.972;2023-02-15T15:03:58;26.98;;;13.38;;
76477;SDS011;65309;49.790;18.972;2023-02-15T15:09:09;40.42;;;19.48;;
76477;SDS011;65309;49.790;18.972;2023-02-15T15:36:01;30.73;;;17.15;;
76477;SDS011;65309;49.790;18.972;2023-02-15T15:41:18;31.85;;;16.48;;
76477;SDS011;65309;49.790;18.972;2023-02-15T15:46:30;33.75;;;14.85;;
76477;SDS011;65309;49.790;18.972;2023-02-15T15:51:49;30.58;;;15.75;;
76477;SDS011;65309;49.790;18.972;2023-02-15T15:56:53;31.55;;;16.38;;
76477;SDS011;65309;49.790;18.972;2023-02-15T16:02:03;29.10;;;14.48;;
76477;SDS011;65309;49.790;18.972;2023-02-15T16:07:20;22.00;;;10.18;;
76477;SDS011;65309;49.790;18.972;2023-02-15T16:12:26;15.13;;;7.78;;
76477;SDS011;65309;49.790;18.972;2023-02-15T16:17:31;10.70;;;7.38;;
76477;SDS011;65309;49.790;18.972;2023-02-15T16:22:35;10.13;;;6.70;;
76477;SDS011;65309;49.790;18.972;2023-02-15T16:27:37;11.77;;;7.25;;
76477;SDS011;65309;49.790;18.972;2023-02-15T16:32:43;17.63;;;8.65;;
76477;SDS011;65309;49.790;18.972;2023-02-15T16:37:45;12.88;;;5.65;;
76477;SDS011;65309;49.790;18.972;2023-02-15T16:42:48;16.38;;;8.65;;
76477;SDS011;65309;49.790;18.972;2023-02-15T16:47:53;16.70;;;8.65;;
76477;SDS011;65309;49.790;18.972;2023-02-15T16:52:58;9.82;;;6.82;;
76477;SDS011;65309;49.790;18.972;2023-02-15T16:58:02;16.85;;;8.48;;
76477;SDS011;65309;49.790;18.972;2023-02-15T17:03:21;7.82;;;5.03;;
76477;SDS011;65309;49.790;18.972;2023-02-15T17:08:26;23.05;;;11.57;;
76477;SDS011;65309;49.790;18.972;2023-02-15T17:13:30;14.95;;;7.97;;
76477;SDS011;65309;49.790;18.972;2023-02-15T17:18:38;12.00;;;6.18;;
76477;SDS011;65309;49.790;18.972;2023-02-15T17:23:46;21.00;;;7.15;;
76477;SDS011;65309;49.790;18.972;2023-02-15T17:28:50;11.10;;;5.75;;
76477;SDS011;65309;49.790;18.972;2023-02-15T17:33:57;11.38;;;7.10;;
76477;SDS011;65309;49.790;18.972;2023-02-15T17:39:01;8.93;;;5.32;;
76477;SDS011;65309;49.790;18.972;2023-02-15T17:44:07;9.57;;;5.00;;
76477;SDS011;65309;49.790;18.972;2023-02-15T17:49:17;15.93;;;7.65;;
76477;SDS011;65309;49.790;18.972;2023-02-15T17:54:24;9.73;;;5.93;;
76477;SDS011;65309;49.790;18.972;2023-02-15T17:59:46;13.30;;;8.77;;
76477;SDS011;65309;49.790;18.972;2023-02-15T18:05:12;14.25;;;8.73;;
76477;SDS011;65309;49.790;18.972;2023-02-15T18:10:33;18.67;;;10.35;;
76477;SDS011;65309;49.790;18.972;2023-02-15T18:15:54;17.45;;;10.57;;
76477;SDS011;65309;49.790;18.972;2023-02-15T18:20:58;12.00;;;9.35;;
76477;SDS011;65309;49.790;18.972;2023-02-15T18:26:00;15.30;;;10.43;;
76477;SDS011;65309;49.790;18.972;2023-02-15T18:31:02;25.50;;;9.27;;
76477;SDS011;65309;49.790;18.972;2023-02-15T18:36:08;19.38;;;10.80;;
76477;SDS011;65309;49.790;18.972;2023-02-15T18:41:15;23.90;;;9.35;;
76477;SDS011;65309;49.790;18.972;2023-02-15T18:46:19;14.63;;;10.30;;
76477;SDS011;65309;49.790;18.972;2023-02-15T18:51:24;27.02;;;13.43;;
76477;SDS011;65309;49.790;18.972;2023-02-15T18:56:26;26.60;;;15.43;;
76477;SDS011;65309;49.790;18.972;2023-02-15T19:01:28;23.20;;;11.52;;
76477;SDS011;65309;49.790;18.972;2023-02-15T19:06:32;28.02;;;13.27;;
76477;SDS011;65309;49.790;18.972;2023-02-15T19:11:34;13.57;;;9.75;;
76477;SDS011;65309;49.790;18.972;2023-02-15T19:16:36;11.02;;;7.68;;
76477;SDS011;65309;49.790;18.972;2023-02-15T19:21:39;12.30;;;8.73;;
76477;SDS011;65309;49.790;18.972;2023-02-15T19:26:41;23.88;;;13.15;;
76477;SDS011;65309;49.790;18.972;2023-02-15T19:31:46;25.02;;;13.30;;
76477;SDS011;65309;49.790;18.972;2023-02-15T19:36:50;25.05;;;10.65;;
76477;SDS011;65309;49.790;18.972;2023-02-15T19:41:54;15.65;;;9.77;;
76477;SDS011;65309;49.790;18.972;2023-02-15T19:46:56;14.77;;;7.82;;
76477;SDS011;65309;49.790;18.972;2023-02-15T19:51:59;15.10;;;8.02;;
76477;SDS011;65309;49.790;18.972;2023-02-15T19:57:02;18.48;;;9.38;;
76477;SDS011;65309;49.790;18.972;2023-02-15T20:02:04;12.55;;;6.97;;
76477;SDS011;65309;49.790;18.972;2023-02-15T20:07:12;13.10;;;9.10;;
76477;SDS011;65309;49.790;18.972;2023-02-15T20:12:20;9.18;;;6.57;;
76477;SDS011;65309;49.790;18.972;2023-02-15T20:17:23;17.17;;;7.70;;
76477;SDS011;65309;49.790;18.972;2023-02-15T20:22:27;14.90;;;9.25;;
76477;SDS011;65309;49.790;18.972;2023-02-15T20:27:29;16.83;;;9.27;;
76477;SDS011;65309;49.790;18.972;2023-02-15T20:32:31;15.25;;;9.73;;
76477;SDS011;65309;49.790;18.972;2023-02-15T20:37:35;16.60;;;8.77;;
76477;SDS011;65309;49.790;18.972;2023-02-15T20:42:37;13.68;;;9.93;;
76477;SDS011;65309;49.790;18.972;2023-02-15T20:47:39;13.77;;;9.30;;
76477;SDS011;65309;49.790;18.972;2023-02-15T20:52:46;19.55;;;9.68;;
76477;SDS011;65309;49.790;18.972;2023-02-15T20:57:49;15.52;;;8.02;;
76477;SDS011;65309;49.790;18.972;2023-02-15T21:02:53;21.40;;;8.13;;
76477;SDS011;65309;49.790;18.972;2023-02-15T21:07:58;10.52;;;6.25;;
76477;SDS011;65309;49.790;18.972;2023-02-15T21:13:01;12.70;;;8.35;;
76477;SDS011;65309;49.790;18.972;2023-02-15T21:18:06;10.75;;;7.72;;
76477;SDS011;65309;49.790;18.972;2023-02-15T21:23:14;13.40;;;7.07;;
76477;SDS011;65309;49.790;18.972;2023-02-15T21:28:18;11.90;;;8.25;;
76477;SDS011;65309;49.790;18.972;2023-02-15T21:33:22;10.07;;;6.65;;
76477;SDS011;65309;49.790;18.972;2023-02-15T21:38:27;13.60;;;10.35;;
76477;SDS011;65309;49.790;18.972;2023-02-15T21:43:31;12.63;;;6.63;;
76477;SDS011;65309;49.790;18.972;2023-02-15T21:48:51;12.40;;;9.95;;
76477;SDS011;65309;49.790;18.972;2023-02-15T21:53:55;14.63;;;9.30;;
76477;SDS011;65309;49.790;18.972;2023-02-15T21:58:57;24.42;;;13.23;;
76477;SDS011;65309;49.790;18.972;2023-02-15T22:03:59;24.73;;;11.90;;
76477;SDS011;65309;49.790;18.972;2023-02-15T22:09:04;17.77;;;10.60;;
76477;SDS011;65309;49.790;18.972;2023-02-15T22:14:26;20.90;;;10.65;;
76477;SDS011;65309;49.790;18.972;2023-02-15T22:19:37;15.80;;;8.38;;
76477;SDS011;65309;49.790;18.972;2023-02-15T22:24:40;13.88;;;8.25;;
76477;SDS011;65309;49.790;18.972;2023-02-15T22:29:42;26.17;;;12.52;;
76477;SDS011;65309;49.790;18.972;2023-02-15T22:34:44;19.80;;;10.00;;
76477;SDS011;65309;49.790;18.972;2023-02-15T22:39:49;25.60;;;13.82;;
76477;SDS011;65309;49.790;18.972;2023-02-15T22:44:51;15.07;;;8.27;;
76477;SDS011;65309;49.790;18.972;2023-02-15T22:49:55;17.00;;;9.48;;
76477;SDS011;65309;49.790;18.972;2023-02-15T22:54:58;17.65;;;8.25;;
76477;SDS011;65309;49.790;18.972;2023-02-15T23:00:00;18.90;;;9.40;;
76477;SDS011;65309;49.790;18.972;2023-02-15T23:05:02;11.38;;;7.78;;
76477;SDS011;65309;49.790;18.972;2023-02-15T23:10:06;13.88;;;8.40;;
76477;SDS011;65309;49.790;18.972;2023-02-15T23:15:21;25.45;;;11.95;;
76477;SDS011;65309;49.790;18.972;2023-02-15T23:20:23;13.80;;;7.35;;
76477;SDS011;65309;49.790;18.972;2023-02-15T23:25:27;32.17;;;13.82;;
76477;SDS011;65309;49.790;18.972;2023-02-15T23:30:29;33.03;;;17.35;;
76477;SDS011;65309;49.790;18.972;2023-02-15T23:35:31;18.70;;;12.52;;
76477;SDS011;65309;49.790;18.972;2023-02-15T23:40:35;18.15;;;9.77;;
76477;SDS011;65309;49.790;18.972;2023-02-15T23:45:55;34.70;;;11.00;;
76477;SDS011;65309;49.790;18.972;2023-02-15T23:50:57;14.20;;;8.32;;
76477;SDS011;65309;49.790;18.972;2023-02-15T23:56:01;11.52;;;7.47;;
